sensor_id;sensor_type;location;lat;lon;timestamp;P1;durP1;ratioP1;P2;durP2;ratioP2
66581;SDS011;53438;48.898;2.308;2023-07-31T03:00:10;3.85;;;1.38;;
66581;SDS011;53438;48.898;2.308;2023-07-31T03:02:36;3.75;;;1.20;;
66581;SDS011;53438;48.898;2.308;2023-07-31T03:05:01;5.80;;;1.70;;
66581;SDS011;53438;48.898;2.308;2023-07-31T03:07:26;5.40;;;1.70;;
66581;SDS011;53438;48.898;2.308;2023-07-31T03:09:52;3.65;;;1.60;;
66581;SDS011;53438;48.898;2.308;2023-07-31T03:12:17;4.20;;;1.70;;
66581;SDS011;53438;48.898;2.308;2023-07-31T03:14:43;4.77;;;1.27;;
66581;SDS011;53438;48.898;2.308;2023-07-31T03:17:08;4.37;;;1.20;;
66581;SDS011;53438;48.898;2.308;2023-07-31T03:19:33;4.97;;;1.50;;
66581;SDS011;53438;48.898;2.308;2023-07-31T03:21:59;2.67;;;1.40;;
66581;SDS011;53438;48.898;2.308;2023-07-31T03:24:25;4.05;;;1.60;;
66581;SDS011;53438;48.898;2.308;2023-07-31T03:26:50;3.88;;;1.35;;
66581;SDS011;53438;48.898;2.308;2023-07-31T03:29:16;5.13;;;1.15;;
66581;SDS011;53438;48.898;2.308;2023-07-31T03:31:41;4.67;;;1.60;;
66581;SDS011;53438;48.898;2.308;2023-07-31T03:34:06;4.73;;;1.27;;
66581;SDS011;53438;48.898;2.308;2023-07-31T03:36:32;3.67;;;1.60;;
66581;SDS011;53438;48.898;2.308;2023-07-31T03:38:57;4.67;;;1.60;;
66581;SDS011;53438;48.898;2.308;2023-07-31T03:41:23;3.40;;;1.10;;
66581;SDS011;53438;48.898;2.308;2023-07-31T03:43:49;6.22;;;1.70;;
66581;SDS011;53438;48.898;2.308;2023-07-31T03:46:20;3.93;;;1.57;;
66581;SDS011;53438;48.898;2.308;2023-07-31T03:48:46;4.93;;;1.50;;
66581;SDS011;53438;48.898;2.308;2023-07-31T03:51:12;5.20;;;2.13;;
66581;SDS011;53438;48.898;2.308;2023-07-31T03:53:37;4.95;;;1.40;;
66581;SDS011;53438;48.898;2.308;2023-07-31T03:56:03;6.00;;;1.40;;
66581;SDS011;53438;48.898;2.308;2023-07-31T03:58:28;4.30;;;1.27;;
66581;SDS011;53438;48.898;2.308;2023-07-31T04:00:53;4.00;;;1.30;;
66581;SDS011;53438;48.898;2.308;2023-07-31T04:03:19;6.83;;;1.40;;
66581;SDS011;53438;48.898;2.308;2023-07-31T04:05:44;5.03;;;1.45;;
66581;SDS011;53438;48.898;2.308;2023-07-31T04:08:10;3.88;;;1.15;;
66581;SDS011;53438;48.898;2.308;2023-07-31T04:10:35;4.07;;;1.23;;
66581;SDS011;53438;48.898;2.308;2023-07-31T04:13:00;8.30;;;1.63;;
66581;SDS011;53438;48.898;2.308;2023-07-31T04:15:26;6.43;;;1.60;;
66581;SDS011;53438;48.898;2.308;2023-07-31T04:17:51;3.93;;;1.63;;
66581;SDS011;53438;48.898;2.308;2023-07-31T04:20:17;4.63;;;1.70;;
66581;SDS011;53438;48.898;2.308;2023-07-31T04:22:42;5.18;;;1.90;;
66581;SDS011;53438;48.898;2.308;2023-07-31T04:25:07;5.33;;;1.97;;
66581;SDS011;53438;48.898;2.308;2023-07-31T04:27:33;6.57;;;1.70;;
66581;SDS011;53438;48.898;2.308;2023-07-31T04:29:58;7.00;;;1.87;;
66581;SDS011;53438;48.898;2.308;2023-07-31T04:32:23;5.57;;;1.67;;
66581;SDS011;53438;48.898;2.308;2023-07-31T04:34:49;5.97;;;2.00;;
66581;SDS011;53438;48.898;2.308;2023-07-31T04:37:14;4.87;;;2.00;;
66581;SDS011;53438;48.898;2.308;2023-07-31T04:39:39;5.80;;;1.80;;
66581;SDS011;53438;48.898;2.308;2023-07-31T04:42:05;4.18;;;1.70;;
66581;SDS011;53438;48.898;2.308;2023-07-31T04:44:30;6.93;;;1.93;;
66581;SDS011;53438;48.898;2.308;2023-07-31T04:46:55;4.47;;;1.80;;
66581;SDS011;53438;48.898;2.308;2023-07-31T04:49:21;5.97;;;2.00;;
66581;SDS011;53438;48.898;2.308;2023-07-31T04:51:47;6.45;;;2.03;;
66581;SDS011;53438;48.898;2.308;2023-07-31T04:54:12;5.43;;;2.00;;
66581;SDS011;53438;48.898;2.308;2023-07-31T04:56:39;7.30;;;2.55;;
66581;SDS011;53438;48.898;2.308;2023-07-31T04:59:05;7.10;;;2.30;;
66581;SDS011;53438;48.898;2.308;2023-07-31T05:01:30;8.60;;;2.20;;
66581;SDS011;53438;48.898;2.308;2023-07-31T05:03:56;6.53;;;2.30;;
66581;SDS011;53438;48.898;2.308;2023-07-31T05:06:21;10.10;;;2.75;;
66581;SDS011;53438;48.898;2.308;2023-07-31T05:08:46;6.47;;;2.10;;
66581;SDS011;53438;48.898;2.308;2023-07-31T05:11:12;7.60;;;2.17;;
66581;SDS011;53438;48.898;2.308;2023-07-31T05:13:37;9.67;;;2.97;;
66581;SDS011;53438;48.898;2.308;2023-07-31T05:16:03;5.78;;;2.38;;
66581;SDS011;53438;48.898;2.308;2023-07-31T05:18:28;6.90;;;2.00;;
66581;SDS011;53438;48.898;2.308;2023-07-31T05:20:54;5.97;;;2.40;;
66581;SDS011;53438;48.898;2.308;2023-07-31T05:23:19;6.23;;;2.47;;
66581;SDS011;53438;48.898;2.308;2023-07-31T05:25:44;11.37;;;3.30;;
66581;SDS011;53438;48.898;2.308;2023-07-31T05:28:11;9.60;;;3.03;;
66581;SDS011;53438;48.898;2.308;2023-07-31T05:30:37;7.95;;;2.15;;
66581;SDS011;53438;48.898;2.308;2023-07-31T05:33:02;5.37;;;2.23;;
66581;SDS011;53438;48.898;2.308;2023-07-31T05:35:27;5.47;;;2.40;;
66581;SDS011;53438;48.898;2.308;2023-07-31T05:37:53;9.73;;;2.83;;
66581;SDS011;53438;48.898;2.308;2023-07-31T05:40:18;8.55;;;2.50;;
66581;SDS011;53438;48.898;2.308;2023-07-31T05:42:43;7.20;;;2.70;;
66581;SDS011;53438;48.898;2.308;2023-07-31T05:45:09;8.13;;;2.70;;
66581;SDS011;53438;48.898;2.308;2023-07-31T05:47:34;8.70;;;2.53;;
66581;SDS011;53438;48.898;2.308;2023-07-31T05:50:00;9.30;;;2.80;;
66581;SDS011;53438;48.898;2.308;2023-07-31T05:52:25;10.30;;;2.73;;
66581;SDS011;53438;48.898;2.308;2023-07-31T05:54:51;8.77;;;3.00;;
66581;SDS011;53438;48.898;2.308;2023-07-31T05:57:16;8.20;;;3.13;;
66581;SDS011;53438;48.898;2.308;2023-07-31T05:59:41;9.83;;;3.20;;
66581;SDS011;53438;48.898;2.308;2023-07-31T06:02:07;13.07;;;3.28;;
66581;SDS011;53438;48.898;2.308;2023-07-31T06:04:32;10.13;;;2.90;;
66581;SDS011;53438;48.898;2.308;2023-07-31T06:06:58;8.00;;;3.10;;
66581;SDS011;53438;48.898;2.308;2023-07-31T06:09:23;10.37;;;4.03;;
66581;SDS011;53438;48.898;2.308;2023-07-31T06:11:50;14.70;;;3.38;;
66581;SDS011;53438;48.898;2.308;2023-07-31T06:14:15;7.38;;;2.67;;
66581;SDS011;53438;48.898;2.308;2023-07-31T06:16:40;9.55;;;2.83;;
66581;SDS011;53438;48.898;2.308;2023-07-31T06:19:06;14.83;;;4.17;;
66581;SDS011;53438;48.898;2.308;2023-07-31T06:21:32;20.38;;;4.22;;
66581;SDS011;53438;48.898;2.308;2023-07-31T06:23:58;19.15;;;4.15;;
66581;SDS011;53438;48.898;2.308;2023-07-31T06:26:24;19.08;;;4.85;;
66581;SDS011;53438;48.898;2.308;2023-07-31T06:28:49;17.23;;;3.67;;
66581;SDS011;53438;48.898;2.308;2023-07-31T06:31:15;14.73;;;3.47;;
66581;SDS011;53438;48.898;2.308;2023-07-31T06:33:40;11.67;;;3.60;;
66581;SDS011;53438;48.898;2.308;2023-07-31T06:36:06;10.93;;;3.77;;
66581;SDS011;53438;48.898;2.308;2023-07-31T06:38:31;12.48;;;3.20;;
66581;SDS011;53438;48.898;2.308;2023-07-31T06:40:57;13.60;;;3.27;;
66581;SDS011;53438;48.898;2.308;2023-07-31T06:43:22;10.30;;;3.20;;
66581;SDS011;53438;48.898;2.308;2023-07-31T06:45:47;9.80;;;2.87;;
66581;SDS011;53438;48.898;2.308;2023-07-31T06:48:16;10.90;;;3.33;;
66581;SDS011;53438;48.898;2.308;2023-07-31T06:50:41;12.13;;;3.37;;
66581;SDS011;53438;48.898;2.308;2023-07-31T06:53:06;12.70;;;4.00;;
66581;SDS011;53438;48.898;2.308;2023-07-31T06:55:32;11.20;;;3.33;;
66581;SDS011;53438;48.898;2.308;2023-07-31T06:57:57;13.20;;;3.85;;
66581;SDS011;53438;48.898;2.308;2023-07-31T07:00:23;13.57;;;4.13;;
66581;SDS011;53438;48.898;2.308;2023-07-31T07:02:49;20.55;;;3.80;;
66581;SDS011;53438;48.898;2.308;2023-07-31T07:05:15;15.83;;;3.67;;
66581;SDS011;53438;48.898;2.308;2023-07-31T07:07:42;22.13;;;3.90;;
66581;SDS011;53438;48.898;2.308;2023-07-31T07:10:07;13.50;;;3.92;;
66581;SDS011;53438;48.898;2.308;2023-07-31T07:12:34;21.65;;;4.40;;
66581;SDS011;53438;48.898;2.308;2023-07-31T07:14:59;31.47;;;5.07;;
66581;SDS011;53438;48.898;2.308;2023-07-31T07:17:25;38.53;;;8.25;;
66581;SDS011;53438;48.898;2.308;2023-07-31T07:19:52;17.73;;;4.27;;
66581;SDS011;53438;48.898;2.308;2023-07-31T07:22:18;15.27;;;3.83;;
66581;SDS011;53438;48.898;2.308;2023-07-31T07:24:43;11.17;;;3.30;;
66581;SDS011;53438;48.898;2.308;2023-07-31T07:27:09;17.37;;;3.60;;
66581;SDS011;53438;48.898;2.308;2023-07-31T07:29:34;13.70;;;3.35;;
66581;SDS011;53438;48.898;2.308;2023-07-31T07:32:00;11.47;;;3.97;;
66581;SDS011;53438;48.898;2.308;2023-07-31T07:34:26;12.27;;;3.30;;
66581;SDS011;53438;48.898;2.308;2023-07-31T07:36:52;13.55;;;4.05;;
66581;SDS011;53438;48.898;2.308;2023-07-31T07:39:18;19.35;;;4.10;;
66581;SDS011;53438;48.898;2.308;2023-07-31T07:41:43;12.87;;;4.33;;
66581;SDS011;53438;48.898;2.308;2023-07-31T07:44:09;14.83;;;4.13;;
66581;SDS011;53438;48.898;2.308;2023-07-31T07:46:34;12.47;;;4.03;;
66581;SDS011;53438;48.898;2.308;2023-07-31T07:48:59;11.97;;;3.57;;
66581;SDS011;53438;48.898;2.308;2023-07-31T07:51:25;12.27;;;3.47;;
66581;SDS011;53438;48.898;2.308;2023-07-31T07:53:50;29.00;;;4.78;;
66581;SDS011;53438;48.898;2.308;2023-07-31T07:56:16;9.00;;;3.50;;
66581;SDS011;53438;48.898;2.308;2023-07-31T07:58:41;10.70;;;3.70;;
66581;SDS011;53438;48.898;2.308;2023-07-31T08:01:06;13.73;;;3.80;;
66581;SDS011;53438;48.898;2.308;2023-07-31T08:03:32;17.83;;;3.63;;
66581;SDS011;53438;48.898;2.308;2023-07-31T08:05:59;20.27;;;4.32;;
66581;SDS011;53438;48.898;2.308;2023-07-31T08:08:24;15.57;;;3.47;;
66581;SDS011;53438;48.898;2.308;2023-07-31T08:10:50;9.70;;;2.90;;
66581;SDS011;53438;48.898;2.308;2023-07-31T08:13:15;15.67;;;3.60;;
66581;SDS011;53438;48.898;2.308;2023-07-31T08:15:41;11.13;;;4.00;;
66581;SDS011;53438;48.898;2.308;2023-07-31T08:18:07;11.15;;;3.45;;
66581;SDS011;53438;48.898;2.308;2023-07-31T08:20:32;8.87;;;3.17;;
66581;SDS011;53438;48.898;2.308;2023-07-31T08:22:58;14.20;;;4.27;;
66581;SDS011;53438;48.898;2.308;2023-07-31T08:25:23;12.90;;;3.77;;
66581;SDS011;53438;48.898;2.308;2023-07-31T08:27:48;15.07;;;3.42;;
66581;SDS011;53438;48.898;2.308;2023-07-31T08:30:14;28.38;;;4.80;;
66581;SDS011;53438;48.898;2.308;2023-07-31T08:32:39;24.33;;;4.17;;
66581;SDS011;53438;48.898;2.308;2023-07-31T08:35:05;17.67;;;3.57;;
66581;SDS011;53438;48.898;2.308;2023-07-31T08:37:30;16.10;;;4.60;;
66581;SDS011;53438;48.898;2.308;2023-07-31T08:39:55;10.40;;;3.83;;
66581;SDS011;53438;48.898;2.308;2023-07-31T08:42:21;14.87;;;4.23;;
66581;SDS011;53438;48.898;2.308;2023-07-31T08:44:46;10.70;;;3.45;;
66581;SDS011;53438;48.898;2.308;2023-07-31T08:47:13;6.70;;;2.60;;
66581;SDS011;53438;48.898;2.308;2023-07-31T08:49:39;13.02;;;4.00;;
66581;SDS011;53438;48.898;2.308;2023-07-31T08:52:07;9.25;;;3.15;;
66581;SDS011;53438;48.898;2.308;2023-07-31T08:54:32;12.97;;;2.93;;
66581;SDS011;53438;48.898;2.308;2023-07-31T08:56:58;8.70;;;2.93;;
66581;SDS011;53438;48.898;2.308;2023-07-31T08:59:25;10.10;;;3.42;;
66581;SDS011;53438;48.898;2.308;2023-07-31T09:01:53;8.10;;;2.80;;
66581;SDS011;53438;48.898;2.308;2023-07-31T09:04:20;9.57;;;2.92;;
66581;SDS011;53438;48.898;2.308;2023-07-31T09:06:47;9.50;;;3.28;;
66581;SDS011;53438;48.898;2.308;2023-07-31T09:09:13;9.10;;;3.35;;
66581;SDS011;53438;48.898;2.308;2023-07-31T09:11:39;14.03;;;3.13;;
66581;SDS011;53438;48.898;2.308;2023-07-31T09:14:04;15.77;;;3.63;;
66581;SDS011;53438;48.898;2.308;2023-07-31T09:16:34;12.57;;;3.55;;
66581;SDS011;53438;48.898;2.308;2023-07-31T09:18:59;10.77;;;3.10;;
66581;SDS011;53438;48.898;2.308;2023-07-31T09:21:27;20.65;;;4.20;;
66581;SDS011;53438;48.898;2.308;2023-07-31T09:23:53;25.58;;;4.07;;
66581;SDS011;53438;48.898;2.308;2023-07-31T09:26:35;32.70;;;4.93;;
66581;SDS011;53438;48.898;2.308;2023-07-31T09:29:03;9.68;;;3.08;;
66581;SDS011;53438;48.898;2.308;2023-07-31T09:33:59;10.60;;;3.13;;
66581;SDS011;53438;48.898;2.308;2023-07-31T09:36:25;10.60;;;3.58;;
66581;SDS011;53438;48.898;2.308;2023-07-31T09:38:54;10.02;;;3.00;;
66581;SDS011;53438;48.898;2.308;2023-07-31T09:41:20;15.20;;;3.53;;
66581;SDS011;53438;48.898;2.308;2023-07-31T09:43:52;7.60;;;3.13;;
66581;SDS011;53438;48.898;2.308;2023-07-31T09:46:18;15.25;;;4.95;;
66581;SDS011;53438;48.898;2.308;2023-07-31T09:48:45;32.53;;;4.55;;
66581;SDS011;53438;48.898;2.308;2023-07-31T09:51:11;15.32;;;4.18;;
66581;SDS011;53438;48.898;2.308;2023-07-31T09:53:36;9.63;;;3.33;;
66581;SDS011;53438;48.898;2.308;2023-07-31T09:56:01;14.70;;;3.93;;
66581;SDS011;53438;48.898;2.308;2023-07-31T09:58:28;7.90;;;3.07;;
66581;SDS011;53438;48.898;2.308;2023-07-31T10:00:54;15.82;;;3.70;;
66581;SDS011;53438;48.898;2.308;2023-07-31T10:03:22;13.38;;;3.50;;
66581;SDS011;53438;48.898;2.308;2023-07-31T10:05:49;12.63;;;3.47;;
66581;SDS011;53438;48.898;2.308;2023-07-31T10:08:16;19.38;;;4.32;;
66581;SDS011;53438;48.898;2.308;2023-07-31T10:10:43;19.00;;;3.80;;
66581;SDS011;53438;48.898;2.308;2023-07-31T10:13:10;11.43;;;4.17;;
66581;SDS011;53438;48.898;2.308;2023-07-31T10:15:36;8.52;;;3.10;;
66581;SDS011;53438;48.898;2.308;2023-07-31T10:18:01;9.77;;;2.95;;
66581;SDS011;53438;48.898;2.308;2023-07-31T10:20:27;6.97;;;3.33;;
66581;SDS011;53438;48.898;2.308;2023-07-31T10:22:57;7.30;;;3.28;;
66581;SDS011;53438;48.898;2.308;2023-07-31T10:25:23;9.23;;;3.15;;
66581;SDS011;53438;48.898;2.308;2023-07-31T10:27:49;9.73;;;3.85;;
66581;SDS011;53438;48.898;2.308;2023-07-31T10:30:15;7.97;;;3.08;;
66581;SDS011;53438;48.898;2.308;2023-07-31T10:32:44;10.00;;;3.20;;
66581;SDS011;53438;48.898;2.308;2023-07-31T10:35:10;15.13;;;3.92;;
66581;SDS011;53438;48.898;2.308;2023-07-31T10:37:40;14.27;;;3.10;;
66581;SDS011;53438;48.898;2.308;2023-07-31T10:40:13;7.40;;;3.00;;
66581;SDS011;53438;48.898;2.308;2023-07-31T10:42:49;8.05;;;3.10;;
66581;SDS011;53438;48.898;2.308;2023-07-31T10:45:23;8.43;;;2.90;;
66581;SDS011;53438;48.898;2.308;2023-07-31T10:50:31;8.85;;;3.83;;
66581;SDS011;53438;48.898;2.308;2023-07-31T10:53:01;7.57;;;2.90;;
66581;SDS011;53438;48.898;2.308;2023-07-31T10:58:08;8.93;;;3.70;;
66581;SDS011;53438;48.898;2.308;2023-07-31T11:00:42;8.50;;;3.30;;
66581;SDS011;53438;48.898;2.308;2023-07-31T11:03:18;9.85;;;3.38;;
66581;SDS011;53438;48.898;2.308;2023-07-31T11:08:31;16.02;;;4.25;;
66581;SDS011;53438;48.898;2.308;2023-07-31T11:13:26;15.48;;;3.95;;
66581;SDS011;53438;48.898;2.308;2023-07-31T11:15:52;9.17;;;3.63;;
66581;SDS011;53438;48.898;2.308;2023-07-31T11:18:17;9.13;;;3.67;;
66581;SDS011;53438;48.898;2.308;2023-07-31T11:20:43;26.05;;;4.90;;
66581;SDS011;53438;48.898;2.308;2023-07-31T11:23:09;10.17;;;3.67;;
66581;SDS011;53438;48.898;2.308;2023-07-31T11:25:35;16.98;;;5.07;;
66581;SDS011;53438;48.898;2.308;2023-07-31T11:28:06;18.90;;;4.85;;
66581;SDS011;53438;48.898;2.308;2023-07-31T11:30:35;20.70;;;5.00;;
66581;SDS011;53438;48.898;2.308;2023-07-31T11:33:01;21.37;;;4.93;;
66581;SDS011;53438;48.898;2.308;2023-07-31T11:35:28;14.90;;;4.00;;
66581;SDS011;53438;48.898;2.308;2023-07-31T11:37:55;10.90;;;4.00;;
66581;SDS011;53438;48.898;2.308;2023-07-31T11:40:20;12.77;;;4.97;;
66581;SDS011;53438;48.898;2.308;2023-07-31T11:42:45;10.80;;;4.67;;
66581;SDS011;53438;48.898;2.308;2023-07-31T11:45:11;9.80;;;4.23;;
66581;SDS011;53438;48.898;2.308;2023-07-31T11:47:37;13.23;;;4.88;;
66581;SDS011;53438;48.898;2.308;2023-07-31T11:50:03;11.73;;;4.40;;
66581;SDS011;53438;48.898;2.308;2023-07-31T11:52:32;10.32;;;4.22;;
66581;SDS011;53438;48.898;2.308;2023-07-31T11:55:09;13.73;;;4.32;;
66581;SDS011;53438;48.898;2.308;2023-07-31T11:57:35;12.27;;;3.90;;
66581;SDS011;53438;48.898;2.308;2023-07-31T12:00:02;11.52;;;3.97;;
66581;SDS011;53438;48.898;2.308;2023-07-31T12:02:29;15.32;;;5.10;;
66581;SDS011;53438;48.898;2.308;2023-07-31T12:04:54;13.02;;;4.85;;
66581;SDS011;53438;48.898;2.308;2023-07-31T12:07:20;9.63;;;4.10;;
66581;SDS011;53438;48.898;2.308;2023-07-31T12:09:54;8.97;;;3.60;;
66581;SDS011;53438;48.898;2.308;2023-07-31T12:12:20;16.50;;;3.72;;
66581;SDS011;53438;48.898;2.308;2023-07-31T12:14:47;15.27;;;4.65;;
66581;SDS011;53438;48.898;2.308;2023-07-31T12:17:12;14.50;;;4.47;;
66581;SDS011;53438;48.898;2.308;2023-07-31T12:19:39;12.15;;;4.88;;
66581;SDS011;53438;48.898;2.308;2023-07-31T12:22:14;10.25;;;4.60;;
66581;SDS011;53438;48.898;2.308;2023-07-31T12:24:41;10.30;;;4.60;;
66581;SDS011;53438;48.898;2.308;2023-07-31T12:27:11;11.32;;;4.28;;
66581;SDS011;53438;48.898;2.308;2023-07-31T12:29:37;20.45;;;5.20;;
66581;SDS011;53438;48.898;2.308;2023-07-31T12:32:04;18.85;;;4.90;;
66581;SDS011;53438;48.898;2.308;2023-07-31T12:34:43;29.90;;;6.15;;
66581;SDS011;53438;48.898;2.308;2023-07-31T12:37:08;43.60;;;6.45;;
66581;SDS011;53438;48.898;2.308;2023-07-31T12:39:34;22.27;;;5.53;;
66581;SDS011;53438;48.898;2.308;2023-07-31T12:41:59;32.00;;;5.87;;
66581;SDS011;53438;48.898;2.308;2023-07-31T12:44:24;22.33;;;5.37;;
66581;SDS011;53438;48.898;2.308;2023-07-31T12:46:50;13.82;;;3.83;;
66581;SDS011;53438;48.898;2.308;2023-07-31T12:49:15;9.57;;;3.92;;
66581;SDS011;53438;48.898;2.308;2023-07-31T12:51:40;10.47;;;3.77;;
66581;SDS011;53438;48.898;2.308;2023-07-31T12:54:06;14.00;;;6.07;;
66581;SDS011;53438;48.898;2.308;2023-07-31T12:56:32;7.88;;;3.60;;
66581;SDS011;53438;48.898;2.308;2023-07-31T12:58:57;13.17;;;3.50;;
66581;SDS011;53438;48.898;2.308;2023-07-31T13:01:22;11.83;;;3.27;;
66581;SDS011;53438;48.898;2.308;2023-07-31T13:03:48;8.20;;;3.63;;
66581;SDS011;53438;48.898;2.308;2023-07-31T13:06:13;8.00;;;4.13;;
66581;SDS011;53438;48.898;2.308;2023-07-31T13:08:39;19.45;;;4.95;;
66581;SDS011;53438;48.898;2.308;2023-07-31T13:11:04;8.07;;;3.57;;
66581;SDS011;53438;48.898;2.308;2023-07-31T13:13:29;26.93;;;5.53;;
66581;SDS011;53438;48.898;2.308;2023-07-31T13:15:55;36.30;;;5.40;;
66581;SDS011;53438;48.898;2.308;2023-07-31T13:18:20;25.93;;;5.97;;
66581;SDS011;53438;48.898;2.308;2023-07-31T13:20:46;62.83;;;7.25;;
66581;SDS011;53438;48.898;2.308;2023-07-31T13:23:11;34.67;;;5.30;;
66581;SDS011;53438;48.898;2.308;2023-07-31T13:25:37;58.53;;;7.40;;
66581;SDS011;53438;48.898;2.308;2023-07-31T13:28:02;22.03;;;4.37;;
66581;SDS011;53438;48.898;2.308;2023-07-31T13:30:27;10.07;;;3.97;;
66581;SDS011;53438;48.898;2.308;2023-07-31T13:32:53;7.60;;;4.50;;
66581;SDS011;53438;48.898;2.308;2023-07-31T13:35:18;7.68;;;3.00;;
66581;SDS011;53438;48.898;2.308;2023-07-31T13:37:44;8.20;;;3.20;;
66581;SDS011;53438;48.898;2.308;2023-07-31T13:40:09;10.00;;;3.53;;
66581;SDS011;53438;48.898;2.308;2023-07-31T13:42:35;7.72;;;3.10;;
66581;SDS011;53438;48.898;2.308;2023-07-31T13:45:01;10.77;;;3.90;;
66581;SDS011;53438;48.898;2.308;2023-07-31T13:47:26;7.13;;;3.20;;
66581;SDS011;53438;48.898;2.308;2023-07-31T13:49:51;9.55;;;3.15;;
66581;SDS011;53438;48.898;2.308;2023-07-31T13:52:17;7.68;;;3.13;;
66581;SDS011;53438;48.898;2.308;2023-07-31T13:54:42;14.03;;;4.37;;
66581;SDS011;53438;48.898;2.308;2023-07-31T13:57:08;19.33;;;3.97;;
66581;SDS011;53438;48.898;2.308;2023-07-31T13:59:33;20.73;;;4.47;;
66581;SDS011;53438;48.898;2.308;2023-07-31T14:01:58;20.10;;;5.00;;
66581;SDS011;53438;48.898;2.308;2023-07-31T14:04:24;21.93;;;4.37;;
66581;SDS011;53438;48.898;2.308;2023-07-31T14:06:49;48.00;;;7.40;;
66581;SDS011;53438;48.898;2.308;2023-07-31T14:09:15;11.88;;;3.92;;
66581;SDS011;53438;48.898;2.308;2023-07-31T14:11:42;13.00;;;3.10;;
66581;SDS011;53438;48.898;2.308;2023-07-31T14:14:08;11.48;;;3.50;;
66581;SDS011;53438;48.898;2.308;2023-07-31T14:16:34;18.35;;;3.92;;
66581;SDS011;53438;48.898;2.308;2023-07-31T14:18:59;28.87;;;5.67;;
66581;SDS011;53438;48.898;2.308;2023-07-31T14:21:25;31.20;;;5.68;;
66581;SDS011;53438;48.898;2.308;2023-07-31T14:23:51;32.47;;;5.90;;
66581;SDS011;53438;48.898;2.308;2023-07-31T14:26:16;26.73;;;4.32;;
66581;SDS011;53438;48.898;2.308;2023-07-31T14:28:42;11.10;;;3.13;;
66581;SDS011;53438;48.898;2.308;2023-07-31T14:31:07;22.93;;;4.80;;
66581;SDS011;53438;48.898;2.308;2023-07-31T14:33:32;26.40;;;4.57;;
66581;SDS011;53438;48.898;2.308;2023-07-31T14:35:58;34.53;;;5.20;;
66581;SDS011;53438;48.898;2.308;2023-07-31T14:38:24;23.67;;;4.47;;
66581;SDS011;53438;48.898;2.308;2023-07-31T14:40:49;10.90;;;3.30;;
66581;SDS011;53438;48.898;2.308;2023-07-31T14:43:14;7.90;;;2.93;;
66581;SDS011;53438;48.898;2.308;2023-07-31T14:45:40;7.87;;;2.83;;
66581;SDS011;53438;48.898;2.308;2023-07-31T14:48:05;13.35;;;3.63;;
66581;SDS011;53438;48.898;2.308;2023-07-31T14:50:30;6.50;;;2.90;;
66581;SDS011;53438;48.898;2.308;2023-07-31T14:52:56;12.10;;;3.53;;
66581;SDS011;53438;48.898;2.308;2023-07-31T14:55:21;7.63;;;3.73;;
66581;SDS011;53438;48.898;2.308;2023-07-31T14:57:47;7.30;;;3.40;;
66581;SDS011;53438;48.898;2.308;2023-07-31T15:00:12;10.68;;;4.00;;
66581;SDS011;53438;48.898;2.308;2023-07-31T15:02:38;10.50;;;3.45;;
66581;SDS011;53438;48.898;2.308;2023-07-31T15:05:04;8.97;;;3.43;;
66581;SDS011;53438;48.898;2.308;2023-07-31T15:07:30;9.40;;;3.40;;
66581;SDS011;53438;48.898;2.308;2023-07-31T15:09:55;9.13;;;3.80;;
66581;SDS011;53438;48.898;2.308;2023-07-31T15:12:20;6.77;;;3.63;;
66581;SDS011;53438;48.898;2.308;2023-07-31T15:14:47;9.88;;;4.40;;
66581;SDS011;53438;48.898;2.308;2023-07-31T15:17:13;9.18;;;3.65;;
66581;SDS011;53438;48.898;2.308;2023-07-31T15:19:38;7.67;;;2.97;;
66581;SDS011;53438;48.898;2.308;2023-07-31T15:22:04;8.50;;;3.57;;
66581;SDS011;53438;48.898;2.308;2023-07-31T15:24:30;9.40;;;3.50;;
66581;SDS011;53438;48.898;2.308;2023-07-31T15:26:56;7.32;;;3.05;;
66581;SDS011;53438;48.898;2.308;2023-07-31T15:29:21;6.97;;;2.70;;
66581;SDS011;53438;48.898;2.308;2023-07-31T15:31:47;7.50;;;3.95;;
66581;SDS011;53438;48.898;2.308;2023-07-31T15:34:13;8.67;;;3.50;;
66581;SDS011;53438;48.898;2.308;2023-07-31T15:36:39;6.75;;;3.42;;
66581;SDS011;53438;48.898;2.308;2023-07-31T15:39:05;8.25;;;3.50;;
66581;SDS011;53438;48.898;2.308;2023-07-31T15:41:33;8.13;;;3.37;;
66581;SDS011;53438;48.898;2.308;2023-07-31T15:43:59;8.30;;;3.40;;
66581;SDS011;53438;48.898;2.308;2023-07-31T15:46:24;7.80;;;3.63;;
66581;SDS011;53438;48.898;2.308;2023-07-31T15:48:49;5.03;;;2.90;;
66581;SDS011;53438;48.898;2.308;2023-07-31T15:51:15;8.18;;;3.97;;
66581;SDS011;53438;48.898;2.308;2023-07-31T15:53:40;6.88;;;2.67;;
66581;SDS011;53438;48.898;2.308;2023-07-31T15:56:06;6.67;;;3.30;;
66581;SDS011;53438;48.898;2.308;2023-07-31T15:58:31;8.53;;;3.50;;
66581;SDS011;53438;48.898;2.308;2023-07-31T16:00:57;10.57;;;3.60;;
66581;SDS011;53438;48.898;2.308;2023-07-31T16:03:23;9.00;;;3.55;;
66581;SDS011;53438;48.898;2.308;2023-07-31T16:05:48;6.03;;;2.73;;
66581;SDS011;53438;48.898;2.308;2023-07-31T16:08:13;7.00;;;2.80;;
66581;SDS011;53438;48.898;2.308;2023-07-31T16:10:39;6.15;;;3.05;;
66581;SDS011;53438;48.898;2.308;2023-07-31T16:13:04;6.07;;;3.27;;
66581;SDS011;53438;48.898;2.308;2023-07-31T16:15:29;8.37;;;3.50;;
66581;SDS011;53438;48.898;2.308;2023-07-31T16:17:55;8.43;;;3.47;;
66581;SDS011;53438;48.898;2.308;2023-07-31T16:20:20;7.50;;;3.40;;
66581;SDS011;53438;48.898;2.308;2023-07-31T16:22:46;5.93;;;3.00;;
66581;SDS011;53438;48.898;2.308;2023-07-31T16:25:11;6.95;;;3.33;;
66581;SDS011;53438;48.898;2.308;2023-07-31T16:27:37;8.33;;;4.93;;
66581;SDS011;53438;48.898;2.308;2023-07-31T16:30:02;6.82;;;3.03;;
66581;SDS011;53438;48.898;2.308;2023-07-31T16:32:28;7.60;;;3.10;;
66581;SDS011;53438;48.898;2.308;2023-07-31T16:34:54;8.00;;;3.10;;
66581;SDS011;53438;48.898;2.308;2023-07-31T16:37:19;11.93;;;3.00;;
66581;SDS011;53438;48.898;2.308;2023-07-31T16:39:45;7.10;;;5.10;;
66581;SDS011;53438;48.898;2.308;2023-07-31T16:42:13;10.30;;;3.40;;
66581;SDS011;53438;48.898;2.308;2023-07-31T16:44:39;5.90;;;3.40;;
66581;SDS011;53438;48.898;2.308;2023-07-31T16:47:04;8.87;;;3.23;;
66581;SDS011;53438;48.898;2.308;2023-07-31T16:49:30;6.47;;;3.70;;
66581;SDS011;53438;48.898;2.308;2023-07-31T16:51:55;6.10;;;3.37;;
66581;SDS011;53438;48.898;2.308;2023-07-31T16:54:21;8.20;;;3.90;;
66581;SDS011;53438;48.898;2.308;2023-07-31T16:56:46;7.83;;;3.77;;
66581;SDS011;53438;48.898;2.308;2023-07-31T16:59:13;8.27;;;3.47;;
66581;SDS011;53438;48.898;2.308;2023-07-31T17:01:40;8.35;;;3.47;;
66581;SDS011;53438;48.898;2.308;2023-07-31T17:04:05;11.60;;;6.07;;
66581;SDS011;53438;48.898;2.308;2023-07-31T17:06:31;7.90;;;4.20;;
66581;SDS011;53438;48.898;2.308;2023-07-31T17:08:56;9.52;;;3.58;;
66581;SDS011;53438;48.898;2.308;2023-07-31T17:11:22;8.13;;;3.80;;
66581;SDS011;53438;48.898;2.308;2023-07-31T17:13:48;7.05;;;3.25;;
66581;SDS011;53438;48.898;2.308;2023-07-31T17:16:13;8.00;;;3.40;;
66581;SDS011;53438;48.898;2.308;2023-07-31T17:18:39;7.47;;;3.50;;
66581;SDS011;53438;48.898;2.308;2023-07-31T17:21:04;9.00;;;4.53;;
66581;SDS011;53438;48.898;2.308;2023-07-31T17:23:29;8.63;;;4.10;;
66581;SDS011;53438;48.898;2.308;2023-07-31T17:25:55;8.80;;;3.90;;
66581;SDS011;53438;48.898;2.308;2023-07-31T17:28:20;8.70;;;3.80;;
66581;SDS011;53438;48.898;2.308;2023-07-31T17:30:47;7.13;;;3.47;;
66581;SDS011;53438;48.898;2.308;2023-07-31T17:33:13;7.87;;;4.17;;
66581;SDS011;53438;48.898;2.308;2023-07-31T17:35:39;7.70;;;3.47;;
66581;SDS011;53438;48.898;2.308;2023-07-31T17:38:05;8.55;;;3.90;;
66581;SDS011;53438;48.898;2.308;2023-07-31T17:40:30;7.20;;;4.07;;
66581;SDS011;53438;48.898;2.308;2023-07-31T17:42:55;6.23;;;3.20;;
66581;SDS011;53438;48.898;2.308;2023-07-31T17:45:21;8.57;;;4.07;;